sensor_id;sensor_type;location;lat;lon;timestamp;P1;durP1;ratioP1;P2;durP2;ratioP2
73170;SDS011;61381;50.118;19.962;2022-12-29T00:03:55;23.85;;;9.82;;
73170;SDS011;61381;50.118;19.962;2022-12-29T00:08:56;21.02;;;9.75;;
73170;SDS011;61381;50.118;19.962;2022-12-29T00:13:58;13.02;;;6.18;;
73170;SDS011;61381;50.118;19.962;2022-12-29T00:18:59;11.82;;;6.00;;
73170;SDS011;61381;50.118;19.962;2022-12-29T00:24:01;16.80;;;7.68;;
73170;SDS011;61381;50.118;19.962;2022-12-29T00:29:04;17.70;;;8.23;;
73170;SDS011;61381;50.118;19.962;2022-12-29T00:34:07;15.05;;;7.68;;
73170;SDS011;61381;50.118;19.962;2022-12-29T00:39:11;19.63;;;8.73;;
73170;SDS011;61381;50.118;19.962;2022-12-29T00:44:16;19.45;;;8.77;;
73170;SDS011;61381;50.118;19.962;2022-12-29T00:49:17;19.67;;;8.82;;
73170;SDS011;61381;50.118;19.962;2022-12-29T00:54:18;17.90;;;8.05;;
73170;SDS011;61381;50.118;19.962;2022-12-29T00:59:22;21.70;;;7.95;;
73170;SDS011;61381;50.118;19.962;2022-12-29T01:04:23;15.63;;;6.93;;
73170;SDS011;61381;50.118;19.962;2022-12-29T01:09:26;17.13;;;8.00;;
73170;SDS011;61381;50.118;19.962;2022-12-29T01:14:28;18.65;;;7.45;;
73170;SDS011;61381;50.118;19.962;2022-12-29T01:19:29;13.13;;;6.43;;
73170;SDS011;61381;50.118;19.962;2022-12-29T01:24:30;13.32;;;5.80;;
73170;SDS011;61381;50.118;19.962;2022-12-29T01:29:32;10.32;;;5.45;;
73170;SDS011;61381;50.118;19.962;2022-12-29T01:34:33;14.32;;;5.55;;
73170;SDS011;61381;50.118;19.962;2022-12-29T01:39:34;9.27;;;4.93;;
73170;SDS011;61381;50.118;19.962;2022-12-29T01:44:41;13.02;;;5.13;;
73170;SDS011;61381;50.118;19.962;2022-12-29T01:49:49;12.10;;;5.15;;
73170;SDS011;61381;50.118;19.962;2022-12-29T01:54:52;14.00;;;8.02;;
73170;SDS011;61381;50.118;19.962;2022-12-29T01:59:58;24.42;;;9.05;;
73170;SDS011;61381;50.118;19.962;2022-12-29T02:05:03;15.85;;;8.15;;
73170;SDS011;61381;50.118;19.962;2022-12-29T02:10:09;13.55;;;6.40;;
73170;SDS011;61381;50.118;19.962;2022-12-29T02:15:11;14.85;;;6.35;;
73170;SDS011;61381;50.118;19.962;2022-12-29T02:25:55;13.57;;;5.55;;
73170;SDS011;61381;50.118;19.962;2022-12-29T02:31:09;11.80;;;5.13;;
73170;SDS011;61381;50.118;19.962;2022-12-29T02:36:20;10.48;;;5.32;;
73170;SDS011;61381;50.118;19.962;2022-12-29T02:41:31;11.93;;;4.60;;
73170;SDS011;61381;50.118;19.962;2022-12-29T02:46:35;9.35;;;4.55;;
73170;SDS011;61381;50.118;19.962;2022-12-29T02:51:43;8.73;;;4.53;;
73170;SDS011;61381;50.118;19.962;2022-12-29T02:56:50;10.00;;;4.95;;
73170;SDS011;61381;50.118;19.962;2022-12-29T03:07:43;11.93;;;5.68;;
73170;SDS011;61381;50.118;19.962;2022-12-29T03:12:53;11.77;;;4.75;;
73170;SDS011;61381;50.118;19.962;2022-12-29T03:18:04;11.60;;;6.30;;
73170;SDS011;61381;50.118;19.962;2022-12-29T03:23:06;12.05;;;4.90;;
73170;SDS011;61381;50.118;19.962;2022-12-29T03:28:09;9.20;;;4.18;;
73170;SDS011;61381;50.118;19.962;2022-12-29T03:33:15;12.27;;;5.72;;
73170;SDS011;61381;50.118;19.962;2022-12-29T03:38:21;9.48;;;3.90;;
73170;SDS011;61381;50.118;19.962;2022-12-29T03:43:26;19.02;;;8.45;;
73170;SDS011;61381;50.118;19.962;2022-12-29T03:48:30;39.03;;;14.63;;
73170;SDS011;61381;50.118;19.962;2022-12-29T03:53:31;25.58;;;10.32;;
73170;SDS011;61381;50.118;19.962;2022-12-29T03:58:32;17.17;;;7.65;;
73170;SDS011;61381;50.118;19.962;2022-12-29T04:03:34;22.35;;;10.77;;
73170;SDS011;61381;50.118;19.962;2022-12-29T04:08:35;21.25;;;8.73;;
73170;SDS011;61381;50.118;19.962;2022-12-29T04:13:36;21.98;;;8.85;;
73170;SDS011;61381;50.118;19.962;2022-12-29T04:18:38;25.75;;;12.25;;
73170;SDS011;61381;50.118;19.962;2022-12-29T04:23:39;18.88;;;8.75;;
73170;SDS011;61381;50.118;19.962;2022-12-29T04:28:40;17.85;;;7.82;;
73170;SDS011;61381;50.118;19.962;2022-12-29T04:33:42;15.23;;;6.82;;
73170;SDS011;61381;50.118;19.962;2022-12-29T04:38:43;14.80;;;6.22;;
73170;SDS011;61381;50.118;19.962;2022-12-29T04:43:44;24.65;;;8.43;;
73170;SDS011;61381;50.118;19.962;2022-12-29T04:48:47;17.38;;;6.95;;
73170;SDS011;61381;50.118;19.962;2022-12-29T04:53:47;19.48;;;10.70;;
73170;SDS011;61381;50.118;19.962;2022-12-29T04:58:48;29.95;;;12.93;;
73170;SDS011;61381;50.118;19.962;2022-12-29T05:03:51;23.45;;;9.32;;
73170;SDS011;61381;50.118;19.962;2022-12-29T05:08:52;12.27;;;5.93;;
73170;SDS011;61381;50.118;19.962;2022-12-29T05:13:53;14.55;;;6.88;;
73170;SDS011;61381;50.118;19.962;2022-12-29T05:18:55;8.63;;;4.50;;
73170;SDS011;61381;50.118;19.962;2022-12-29T05:23:56;8.25;;;4.00;;
73170;SDS011;61381;50.118;19.962;2022-12-29T05:28:57;10.13;;;5.15;;
73170;SDS011;61381;50.118;19.962;2022-12-29T05:33:59;10.25;;;5.05;;
73170;SDS011;61381;50.118;19.962;2022-12-29T05:39:00;9.10;;;3.95;;
73170;SDS011;61381;50.118;19.962;2022-12-29T05:44:01;7.10;;;2.97;;
73170;SDS011;61381;50.118;19.962;2022-12-29T05:49:04;7.05;;;3.58;;
73170;SDS011;61381;50.118;19.962;2022-12-29T05:54:05;13.65;;;5.47;;
73170;SDS011;61381;50.118;19.962;2022-12-29T05:59:06;13.02;;;6.60;;
73170;SDS011;61381;50.118;19.962;2022-12-29T06:04:08;9.40;;;5.03;;
73170;SDS011;61381;50.118;19.962;2022-12-29T06:09:09;10.48;;;5.10;;
73170;SDS011;61381;50.118;19.962;2022-12-29T06:19:13;10.13;;;5.25;;
73170;SDS011;61381;50.118;19.962;2022-12-29T06:24:13;10.27;;;5.75;;
73170;SDS011;61381;50.118;19.962;2022-12-29T06:29:14;16.20;;;6.47;;
73170;SDS011;61381;50.118;19.962;2022-12-29T06:34:17;14.02;;;6.00;;
73170;SDS011;61381;50.118;19.962;2022-12-29T06:39:18;18.98;;;7.70;;
73170;SDS011;61381;50.118;19.962;2022-12-29T06:44:18;36.67;;;14.75;;
73170;SDS011;61381;50.118;19.962;2022-12-29T06:49:21;34.28;;;13.73;;
73170;SDS011;61381;50.118;19.962;2022-12-29T06:54:22;18.30;;;8.35;;
73170;SDS011;61381;50.118;19.962;2022-12-29T06:59:23;28.42;;;9.10;;
73170;SDS011;61381;50.118;19.962;2022-12-29T07:04:25;42.28;;;21.27;;
73170;SDS011;61381;50.118;19.962;2022-12-29T07:09:26;15.30;;;7.20;;
73170;SDS011;61381;50.118;19.962;2022-12-29T07:14:27;11.90;;;5.95;;
73170;SDS011;61381;50.118;19.962;2022-12-29T07:19:29;23.15;;;8.45;;
73170;SDS011;61381;50.118;19.962;2022-12-29T07:24:30;11.18;;;4.90;;
73170;SDS011;61381;50.118;19.962;2022-12-29T07:29:31;7.97;;;3.97;;
73170;SDS011;61381;50.118;19.962;2022-12-29T07:34:33;11.45;;;4.60;;
73170;SDS011;61381;50.118;19.962;2022-12-29T07:39:35;10.90;;;4.82;;
73170;SDS011;61381;50.118;19.962;2022-12-29T07:44:35;12.15;;;4.72;;
73170;SDS011;61381;50.118;19.962;2022-12-29T07:49:38;13.85;;;5.80;;
73170;SDS011;61381;50.118;19.962;2022-12-29T07:54:39;9.55;;;4.90;;
73170;SDS011;61381;50.118;19.962;2022-12-29T07:59:40;11.05;;;6.05;;
73170;SDS011;61381;50.118;19.962;2022-12-29T08:04:42;13.82;;;5.82;;
73170;SDS011;61381;50.118;19.962;2022-12-29T08:09:43;16.73;;;6.35;;
73170;SDS011;61381;50.118;19.962;2022-12-29T08:14:44;13.35;;;7.28;;
73170;SDS011;61381;50.118;19.962;2022-12-29T08:19:46;15.10;;;6.35;;
73170;SDS011;61381;50.118;19.962;2022-12-29T08:24:47;14.93;;;6.10;;
73170;SDS011;61381;50.118;19.962;2022-12-29T08:29:48;46.00;;;24.73;;
73170;SDS011;61381;50.118;19.962;2022-12-29T08:34:51;35.65;;;19.30;;
73170;SDS011;61381;50.118;19.962;2022-12-29T08:39:52;22.83;;;9.38;;
73170;SDS011;61381;50.118;19.962;2022-12-29T08:44:53;25.30;;;12.38;;
73170;SDS011;61381;50.118;19.962;2022-12-29T08:49:55;23.52;;;8.77;;
73170;SDS011;61381;50.118;19.962;2022-12-29T08:54:56;20.48;;;9.45;;
73170;SDS011;61381;50.118;19.962;2022-12-29T09:04:59;18.15;;;9.20;;
73170;SDS011;61381;50.118;19.962;2022-12-29T09:10:00;19.58;;;8.40;;
73170;SDS011;61381;50.118;19.962;2022-12-29T09:20:03;23.20;;;10.48;;
73170;SDS011;61381;50.118;19.962;2022-12-29T09:25:05;23.90;;;10.75;;
73170;SDS011;61381;50.118;19.962;2022-12-29T09:30:08;18.10;;;9.70;;
73170;SDS011;61381;50.118;19.962;2022-12-29T09:35:12;52.85;;;16.58;;
73170;SDS011;61381;50.118;19.962;2022-12-29T09:40:18;23.95;;;7.70;;
73170;SDS011;61381;50.118;19.962;2022-12-29T09:45:26;11.88;;;4.43;;
73170;SDS011;61381;50.118;19.962;2022-12-29T09:50:35;8.13;;;3.30;;
73170;SDS011;61381;50.118;19.962;2022-12-29T09:55:41;17.55;;;5.95;;
73170;SDS011;61381;50.118;19.962;2022-12-29T10:00:47;5.60;;;2.75;;
73170;SDS011;61381;50.118;19.962;2022-12-29T10:05:55;8.73;;;3.65;;
73170;SDS011;61381;50.118;19.962;2022-12-29T10:11:06;5.78;;;3.05;;
73170;SDS011;61381;50.118;19.962;2022-12-29T10:16:18;9.90;;;3.75;;
73170;SDS011;61381;50.118;19.962;2022-12-29T10:21:30;6.80;;;3.72;;
73170;SDS011;61381;50.118;19.962;2022-12-29T10:26:43;9.38;;;4.30;;
73170;SDS011;61381;50.118;19.962;2022-12-29T10:31:47;7.32;;;3.97;;
73170;SDS011;61381;50.118;19.962;2022-12-29T10:36:55;8.30;;;4.03;;
73170;SDS011;61381;50.118;19.962;2022-12-29T10:42:03;7.40;;;3.97;;
73170;SDS011;61381;50.118;19.962;2022-12-29T10:47:12;7.28;;;3.88;;
73170;SDS011;61381;50.118;19.962;2022-12-29T10:52:17;9.48;;;4.20;;
73170;SDS011;61381;50.118;19.962;2022-12-29T10:57:24;9.55;;;4.68;;
73170;SDS011;61381;50.118;19.962;2022-12-29T11:07:54;7.13;;;3.72;;
73170;SDS011;61381;50.118;19.962;2022-12-29T11:13:00;6.93;;;3.42;;
73170;SDS011;61381;50.118;19.962;2022-12-29T11:18:03;7.55;;;3.35;;
73170;SDS011;61381;50.118;19.962;2022-12-29T11:23:10;7.43;;;3.65;;
73170;SDS011;61381;50.118;19.962;2022-12-29T11:28:23;6.50;;;2.55;;
73170;SDS011;61381;50.118;19.962;2022-12-29T11:33:24;5.75;;;2.80;;
73170;SDS011;61381;50.118;19.962;2022-12-29T11:38:31;5.28;;;2.85;;
73170;SDS011;61381;50.118;19.962;2022-12-29T11:43:36;5.53;;;2.38;;
73170;SDS011;61381;50.118;19.962;2022-12-29T11:48:42;7.45;;;2.72;;
73170;SDS011;61381;50.118;19.962;2022-12-29T11:53:45;6.15;;;2.83;;
73170;SDS011;61381;50.118;19.962;2022-12-29T11:58:47;4.43;;;2.40;;
73170;SDS011;61381;50.118;19.962;2022-12-29T12:03:52;7.40;;;2.63;;
73170;SDS011;61381;50.118;19.962;2022-12-29T12:09:02;4.05;;;2.72;;
73170;SDS011;61381;50.118;19.962;2022-12-29T12:14:07;4.93;;;2.75;;
73170;SDS011;61381;50.118;19.962;2022-12-29T12:19:15;5.40;;;2.33;;
73170;SDS011;61381;50.118;19.962;2022-12-29T12:24:36;4.57;;;2.58;;
73170;SDS011;61381;50.118;19.962;2022-12-29T12:29:45;4.53;;;2.20;;
73170;SDS011;61381;50.118;19.962;2022-12-29T12:34:50;3.92;;;2.38;;
73170;SDS011;61381;50.118;19.962;2022-12-29T12:40:00;5.07;;;2.55;;
73170;SDS011;61381;50.118;19.962;2022-12-29T12:45:23;4.88;;;2.42;;
73170;SDS011;61381;50.118;19.962;2022-12-29T12:50:36;5.78;;;2.67;;
73170;SDS011;61381;50.118;19.962;2022-12-29T12:55:49;5.32;;;2.60;;
73170;SDS011;61381;50.118;19.962;2022-12-29T13:01:10;4.97;;;2.83;;
73170;SDS011;61381;50.118;19.962;2022-12-29T13:06:21;5.35;;;2.58;;
73170;SDS011;61381;50.118;19.962;2022-12-29T13:11:35;4.68;;;2.72;;
73170;SDS011;61381;50.118;19.962;2022-12-29T13:16:53;5.60;;;2.53;;
73170;SDS011;61381;50.118;19.962;2022-12-29T13:22:04;4.63;;;2.50;;
73170;SDS011;61381;50.118;19.962;2022-12-29T13:27:13;6.55;;;2.53;;
73170;SDS011;61381;50.118;19.962;2022-12-29T13:32:20;3.58;;;2.08;;
73170;SDS011;61381;50.118;19.962;2022-12-29T13:37:28;4.70;;;2.55;;
73170;SDS011;61381;50.118;19.962;2022-12-29T13:42:32;5.80;;;2.67;;
73170;SDS011;61381;50.118;19.962;2022-12-29T13:47:36;6.82;;;3.00;;
73170;SDS011;61381;50.118;19.962;2022-12-29T13:52:43;8.48;;;3.90;;
73170;SDS011;61381;50.118;19.962;2022-12-29T13:57:51;9.23;;;4.25;;
73170;SDS011;61381;50.118;19.962;2022-12-29T14:03:12;6.65;;;4.07;;
73170;SDS011;61381;50.118;19.962;2022-12-29T14:08:24;7.30;;;3.72;;
73170;SDS011;61381;50.118;19.962;2022-12-29T14:13:26;8.10;;;3.80;;
73170;SDS011;61381;50.118;19.962;2022-12-29T14:18:27;8.13;;;3.85;;
73170;SDS011;61381;50.118;19.962;2022-12-29T14:23:36;8.55;;;3.72;;
73170;SDS011;61381;50.118;19.962;2022-12-29T14:28:40;6.80;;;3.80;;
73170;SDS011;61381;50.118;19.962;2022-12-29T14:34:14;7.57;;;3.90;;
73170;SDS011;61381;50.118;19.962;2022-12-29T14:39:26;8.18;;;4.10;;
73170;SDS011;61381;50.118;19.962;2022-12-29T14:44:39;10.77;;;4.40;;
73170;SDS011;61381;50.118;19.962;2022-12-29T14:49:47;6.72;;;3.35;;
73170;SDS011;61381;50.118;19.962;2022-12-29T14:54:49;7.55;;;3.65;;
73170;SDS011;61381;50.118;19.962;2022-12-29T14:59:54;11.13;;;4.65;;
73170;SDS011;61381;50.118;19.962;2022-12-29T15:05:00;10.98;;;4.72;;
73170;SDS011;61381;50.118;19.962;2022-12-29T15:10:05;13.40;;;5.05;;
73170;SDS011;61381;50.118;19.962;2022-12-29T15:15:21;9.55;;;4.35;;
73170;SDS011;61381;50.118;19.962;2022-12-29T15:20:25;9.43;;;4.65;;
73170;SDS011;61381;50.118;19.962;2022-12-29T15:25:28;9.38;;;3.95;;
73170;SDS011;61381;50.118;19.962;2022-12-29T15:30:32;7.50;;;4.10;;
73170;SDS011;61381;50.118;19.962;2022-12-29T15:35:34;10.38;;;4.57;;
73170;SDS011;61381;50.118;19.962;2022-12-29T15:40:37;14.65;;;5.03;;
73170;SDS011;61381;50.118;19.962;2022-12-29T15:45:39;10.80;;;5.20;;
73170;SDS011;61381;50.118;19.962;2022-12-29T15:50:40;11.93;;;5.40;;
73170;SDS011;61381;50.118;19.962;2022-12-29T15:55:42;14.15;;;7.22;;
73170;SDS011;61381;50.118;19.962;2022-12-29T16:00:48;11.82;;;6.35;;
73170;SDS011;61381;50.118;19.962;2022-12-29T16:05:50;17.08;;;7.35;;
73170;SDS011;61381;50.118;19.962;2022-12-29T16:10:53;18.98;;;10.20;;
73170;SDS011;61381;50.118;19.962;2022-12-29T16:15:56;15.30;;;6.13;;
73170;SDS011;61381;50.118;19.962;2022-12-29T16:21:02;13.05;;;6.50;;
73170;SDS011;61381;50.118;19.962;2022-12-29T16:26:05;12.02;;;5.40;;
73170;SDS011;61381;50.118;19.962;2022-12-29T16:31:18;16.85;;;6.90;;
73170;SDS011;61381;50.118;19.962;2022-12-29T16:36:23;24.15;;;10.93;;
73170;SDS011;61381;50.118;19.962;2022-12-29T16:41:29;18.67;;;7.50;;
73170;SDS011;61381;50.118;19.962;2022-12-29T16:46:33;15.35;;;6.80;;
73170;SDS011;61381;50.118;19.962;2022-12-29T16:51:34;16.90;;;7.35;;
73170;SDS011;61381;50.118;19.962;2022-12-29T16:56:37;18.77;;;8.40;;
73170;SDS011;61381;50.118;19.962;2022-12-29T17:01:46;19.63;;;9.65;;
73170;SDS011;61381;50.118;19.962;2022-12-29T17:06:47;23.42;;;9.88;;
73170;SDS011;61381;50.118;19.962;2022-12-29T17:16:52;23.50;;;8.80;;
73170;SDS011;61381;50.118;19.962;2022-12-29T17:21:53;18.55;;;7.78;;
73170;SDS011;61381;50.118;19.962;2022-12-29T17:26:55;21.05;;;8.57;;
73170;SDS011;61381;50.118;19.962;2022-12-29T17:31:59;18.33;;;8.52;;
73170;SDS011;61381;50.118;19.962;2022-12-29T17:37:02;18.85;;;9.27;;
73170;SDS011;61381;50.118;19.962;2022-12-29T17:47:07;20.95;;;8.05;;
73170;SDS011;61381;50.118;19.962;2022-12-29T17:52:10;17.17;;;8.07;;
73170;SDS011;61381;50.118;19.962;2022-12-29T17:57:12;18.88;;;8.95;;
73170;SDS011;61381;50.118;19.962;2022-12-29T18:02:28;21.95;;;10.73;;
73170;SDS011;61381;50.118;19.962;2022-12-29T18:07:31;31.55;;;13.82;;
73170;SDS011;61381;50.118;19.962;2022-12-29T18:22:38;29.92;;;13.98;;
73170;SDS011;61381;50.118;19.962;2022-12-29T18:27:40;30.80;;;14.20;;
73170;SDS011;61381;50.118;19.962;2022-12-29T18:37:43;39.78;;;17.95;;
73170;SDS011;61381;50.118;19.962;2022-12-29T18:42:43;27.05;;;11.65;;
73170;SDS011;61381;50.118;19.962;2022-12-29T18:52:47;36.75;;;17.95;;
73170;SDS011;61381;50.118;19.962;2022-12-29T18:57:48;26.80;;;12.40;;
73170;SDS011;61381;50.118;19.962;2022-12-29T19:02:51;31.27;;;14.48;;
73170;SDS011;61381;50.118;19.962;2022-12-29T19:07:52;28.80;;;12.85;;
73170;SDS011;61381;50.118;19.962;2022-12-29T19:12:54;29.92;;;12.43;;
73170;SDS011;61381;50.118;19.962;2022-12-29T19:17:56;31.05;;;14.63;;
73170;SDS011;61381;50.118;19.962;2022-12-29T19:22:59;36.72;;;15.98;;
73170;SDS011;61381;50.118;19.962;2022-12-29T19:28:02;38.38;;;16.55;;
73170;SDS011;61381;50.118;19.962;2022-12-29T19:33:06;40.92;;;15.30;;
73170;SDS011;61381;50.118;19.962;2022-12-29T19:38:06;43.10;;;19.65;;
73170;SDS011;61381;50.118;19.962;2022-12-29T19:43:08;55.22;;;26.13;;
73170;SDS011;61381;50.118;19.962;2022-12-29T19:48:11;39.83;;;18.55;;
73170;SDS011;61381;50.118;19.962;2022-12-29T19:53:14;38.78;;;17.75;;
73170;SDS011;61381;50.118;19.962;2022-12-29T19:58:15;33.10;;;15.40;;
73170;SDS011;61381;50.118;19.962;2022-12-29T20:03:18;25.02;;;10.75;;
73170;SDS011;61381;50.118;19.962;2022-12-29T20:08:19;22.38;;;11.60;;
73170;SDS011;61381;50.118;19.962;2022-12-29T20:13:20;33.78;;;15.70;;
73170;SDS011;61381;50.118;19.962;2022-12-29T20:18:22;30.40;;;13.52;;
73170;SDS011;61381;50.118;19.962;2022-12-29T20:23:23;29.02;;;13.85;;
73170;SDS011;61381;50.118;19.962;2022-12-29T20:28:25;36.30;;;15.98;;
73170;SDS011;61381;50.118;19.962;2022-12-29T20:33:28;27.80;;;12.93;;
73170;SDS011;61381;50.118;19.962;2022-12-29T20:38:30;23.13;;;11.45;;
73170;SDS011;61381;50.118;19.962;2022-12-29T20:43:31;32.38;;;14.15;;
73170;SDS011;61381;50.118;19.962;2022-12-29T20:48:34;25.40;;;11.30;;
73170;SDS011;61381;50.118;19.962;2022-12-29T20:53:35;23.38;;;11.35;;
73170;SDS011;61381;50.118;19.962;2022-12-29T20:58:37;28.75;;;11.68;;
73170;SDS011;61381;50.118;19.962;2022-12-29T21:03:39;23.58;;;10.93;;
73170;SDS011;61381;50.118;19.962;2022-12-29T21:08:40;20.90;;;9.93;;
73170;SDS011;61381;50.118;19.962;2022-12-29T21:13:41;30.75;;;11.65;;
73170;SDS011;61381;50.118;19.962;2022-12-29T21:18:44;30.65;;;15.35;;
73170;SDS011;61381;50.118;19.962;2022-12-29T21:23:45;39.67;;;18.30;;
73170;SDS011;61381;50.118;19.962;2022-12-29T21:33:48;30.05;;;12.55;;
73170;SDS011;61381;50.118;19.962;2022-12-29T21:38:50;32.22;;;13.93;;
73170;SDS011;61381;50.118;19.962;2022-12-29T21:43:51;25.00;;;12.65;;
73170;SDS011;61381;50.118;19.962;2022-12-29T21:48:53;30.60;;;12.07;;
73170;SDS011;61381;50.118;19.962;2022-12-29T21:53:55;30.35;;;13.20;;
73170;SDS011;61381;50.118;19.962;2022-12-29T21:58:57;37.08;;;16.75;;
73170;SDS011;61381;50.118;19.962;2022-12-29T22:03:59;34.13;;;15.82;;
73170;SDS011;61381;50.118;19.962;2022-12-29T22:09:00;36.30;;;15.88;;
73170;SDS011;61381;50.118;19.962;2022-12-29T22:14:01;39.53;;;16.95;;
73170;SDS011;61381;50.118;19.962;2022-12-29T22:19:04;34.80;;;16.77;;
73170;SDS011;61381;50.118;19.962;2022-12-29T22:24:05;39.13;;;16.23;;
73170;SDS011;61381;50.118;19.962;2022-12-29T22:29:06;38.72;;;17.25;;
73170;SDS011;61381;50.118;19.962;2022-12-29T22:34:08;36.05;;;16.70;;
73170;SDS011;61381;50.118;19.962;2022-12-29T22:39:10;46.83;;;20.33;;
73170;SDS011;61381;50.118;19.962;2022-12-29T22:44:10;46.90;;;22.40;;
73170;SDS011;61381;50.118;19.962;2022-12-29T22:49:13;58.75;;;22.38;;
73170;SDS011;61381;50.118;19.962;2022-12-29T22:54:14;46.80;;;19.10;;
73170;SDS011;61381;50.118;19.962;2022-12-29T22:59:15;48.75;;;19.58;;
73170;SDS011;61381;50.118;19.962;2022-12-29T23:04:18;53.83;;;21.02;;
73170;SDS011;61381;50.118;19.962;2022-12-29T23:09:20;73.40;;;30.25;;
73170;SDS011;61381;50.118;19.962;2022-12-29T23:14:21;96.38;;;43.60;;
73170;SDS011;61381;50.118;19.962;2022-12-29T23:19:24;71.70;;;31.92;;
73170;SDS011;61381;50.118;19.962;2022-12-29T23:24:25;57.97;;;26.10;;
73170;SDS011;61381;50.118;19.962;2022-12-29T23:29:26;109.80;;;33.88;;
73170;SDS011;61381;50.118;19.962;2022-12-29T23:34:28;152.23;;;41.03;;
73170;SDS011;61381;50.118;19.962;2022-12-29T23:39:29;90.70;;;29.88;;
73170;SDS011;61381;50.118;19.962;2022-12-29T23:49:32;87.95;;;28.25;;
73170;SDS011;61381;50.118;19.962;2022-12-29T23:54:33;75.35;;;27.02;;
73170;SDS011;61381;50.118;19.962;2022-12-29T23:59:34;76.20;;;27.23;;
